DW8540 Weather Reports


time (UTC)temp
C
wind
direction
speed
KPH
gust
KPH
rain 1hr
cm
rain 24hr
cm
rain mn
cm
humidity
%
barometer
mb
20190421160020 15 171 3.2 6.4 0.30 1.22 1.17 93 1017.0
20190421155520 15 154 3.2 4.8 0.38 1.22 1.17 93 1016.9
20190421154520 15 135 4.8 6.4 0.71 1.22 1.17 93 1017.0
20190421153520 15 110 3.2 4.8 0.97 1.17 1.14 92 1017.0
20190421153021 15 37 3.2 4.8 1.02 1.17 1.14 92 1017.1
20190421151520 15 61 6.4 9.7 1.02 1.09 1.04 91 1017.1
20190421151020 16 24 4.8 6.4 0.97 1.04 1.02 91 1017.3
20190421150520 16 344 3.2 6.4 0.94 1.02 0.97 90 1017.6
20190421150020 16 42 4.8 6.4 0.86 0.89 0.86 90 1017.4
20190421145020 16 345 9.7 16.1 0.64 0.66 0.64 89 1017.5
20190421144520 16 343 6.4 16.1 0.46 0.51 0.46 88 1017.6
20190421143020 17 293 4.8 6.4 0.13 0.15 0.13 83 1017.0
20190421142520 17 191 3.2 3.2 0.08 0.13 0.08 81 1016.8
20190421141520 17 228 3.2 4.8 0.05 0.08 0.05 80 1016.7
20190421135020 17 96 3.2 6.4 0.00 0.05 0.05 76 1016.3
20190421133520 18 93 8.0 9.7 0.00 0.05 0.05 77 1016.2
20190421132019 18 97 8.0 12.9 0.00 0.05 0.05 78 1016.0
20190421131020 18 145 6.4 6.4 0.00 0.05 0.05 77 1016.3
20190421130019 18 178 11.3 14.5 0.00 0.05 0.05 77 1016.2
20190421125520 18 183 11.3 14.5 0.00 0.05 0.05 78 1016.2
20190421125020 18 176 9.7 14.5 0.00 0.05 0.05 79 1016.4
20190421124520 18 181 6.4 11.3 0.00 0.05 0.05 79 1016.4
20190421124020 18 175 6.4 11.3 0.00 0.05 0.05 79 1016.4
20190421123520 18 184 9.7 12.9 0.00 0.05 0.05 79 1016.5
20190421122020 18 230 4.8 6.4 0.00 0.05 0.05 76 1016.7
20190421120520 19 241 4.8 8.0 0.00 0.05 0.05 72 1016.3
20190421120020 19 270 8.0 12.9 0.00 0.05 0.05 71 1016.3
20190421115020 19 279 4.8 8.0 0.00 0.05 0.05 71 1016.1
20190421113520 19 159 9.7 14.5 0.00 0.05 0.05 71 1015.6
20190421113019 19 184 11.3 20.9 0.05 0.05 0.05 71 1015.6
20190421112520 20 186 12.9 20.9 0.05 0.05 0.05 72 1015.5
20190421110520 20 249 8.0 11.3 0.05 0.05 0.05 69 1015.2
20190421110020 20 267 6.4 11.3 0.05 0.05 0.05 69 1015.2
20190421105520 20 252 6.4 12.9 0.05 0.05 0.05 69 1015.0
20190421105020 20 262 3.2 12.9 0.05 0.05 0.05 69 1014.9
20190421104520 21 207 1.6 4.8 0.05 0.05 0.05 69 1014.8
20190421104021 21 242 3.2 6.4 0.05 0.05 0.05 65 1014.7
20190421103020 21 276 9.7 12.9 0.00 0.00 0.00 60 1014.7
20190421102020 21 346 3.2 6.4 0.00 0.00 0.00 60 1014.6
20190421101520 21 60 4.8 9.7 0.00 0.00 0.00 59 1014.1
20190421095520 21 52 4.8 6.4 0.00 0.00 0.00 58 1014.0
20190421094519 21 24 3.2 3.2 0.00 0.00 0.00 58 1014.0
20190421094019 21 30 3.2 3.2 0.00 0.00 0.00 58 1014.0
20190421092020 21 1 3.2 4.8 0.00 0.00 0.00 57 1014.0
20190421090020 22 181 4.8 4.8 0.00 0.00 0.00 56 1013.8
20190421085520 22 181 3.2 4.8 0.00 0.00 0.00 55 1013.9
20190421085019 22 181 3.2 3.2 0.00 0.00 0.00 54 1013.7
20190421082019 23 52 4.8 6.4 0.00 0.00 0.00 51 1013.5
20190421081520 23 41 6.4 8.0 0.00 0.00 0.00 51 1013.4
20190421081019 23 38 8.0 9.7 0.00 0.00 0.00 51 1013.3
20190421080520 23 48 8.0 9.7 0.00 0.00 0.00 51 1013.3
20190421080020 23 29 6.4 8.0 0.00 0.00 0.00 51 1013.4
20190421075519 23 347 4.8 6.4 0.00 0.00 0.00 51 1013.5
20190421075021 23 49 4.8 6.4 0.00 0.00 0.00 51 1013.4
20190421073520 24 68 4.8 6.4 0.00 0.00 0.00 49 1013.4
20190421073020 24 64 4.8 6.4 0.00 0.00 0.00 49 1013.3
20190421072020 24 56 4.8 6.4 0.00 0.00 0.00 48 1013.4
20190421071519 24 51 4.8 6.4 0.00 0.00 0.00 48 1013.4
20190421070020 25 70 6.4 8.0 0.00 0.00 0.00 47 1013.5
20190421065019 25 64 8.0 11.3 0.00 0.00 0.00 46 1013.5
20190421064019 25 43 8.0 12.9 0.00 0.00 0.00 45 1013.6
20190421063520 25 53 6.4 6.4 0.00 0.00 0.00 45 1013.6
20190421062521 25 54 6.4 11.3 0.00 0.00 0.00 44 1013.5
20190421062021 26 41 6.4 8.0 0.00 0.00 0.00 44 1013.6
20190421061521 26 55 4.8 8.0 0.00 0.00 0.00 44 1013.7
20190421061020 26 9 3.2 9.7 0.00 0.00 0.00 44 1013.6
20190421060520 26 351 4.8 9.7 0.00 0.00 0.00 44 1013.7
20190421060019 26 3 6.4 9.7 0.00 0.00 0.00 43 1013.6
20190421055020 27 58 9.7 12.9 0.00 0.00 0.00 42 1013.8
20190421054519 27 68 9.7 12.9 0.00 0.00 0.00 42 1013.7
20190421054020 27 64 9.7 12.9 0.00 0.00 0.00 43 1013.8
20190421053520 26 67 8.0 12.9 0.00 0.00 0.00 44 1013.8
20190421052520 26 334 3.2 6.4 0.00 0.00 0.00 44 1013.9
20190421052020 26 339 4.8 9.7 0.00 0.00 0.00 44 1013.9
20190421050519 27 316 9.7 17.7 0.00 0.00 0.00 42 1013.8
20190421045519 27 314 6.4 17.7 0.00 0.00 0.00 42 1013.9
20190421045020 27 20 8.0 11.3 0.00 0.00 0.00 42 1014.0
20190421044519 27 36 8.0 11.3 0.00 0.00 0.00 41 1013.9
20190421044019 27 41 6.4 9.7 0.00 0.00 0.00 41 1013.9
20190421042019 27 53 8.0 11.3 0.00 0.00 0.00 42 1013.9
20190421041519 27 356 8.0 11.3 0.00 0.00 0.00 42 1014.0
20190421041019 27 359 6.4 11.3 0.00 0.00 0.00 42 1013.9
20190421040520 27 351 8.0 11.3 0.00 0.00 0.00 42 1014.0
20190421035520 27 26 6.4 14.5 0.00 0.00 0.00 42 1014.0
20190421035020 27 21 6.4 9.7 0.00 0.00 0.00 42 1014.0
20190421034520 27 39 6.4 9.7 0.00 0.00 0.00 42 1014.3
20190421034020 27 28 6.4 9.7 0.00 0.00 0.00 42 1014.3
20190421033520 27 354 8.0 12.9 0.00 0.00 0.00 41 1014.2
20190421033020 28 7 8.0 12.9 0.00 0.00 0.00 40 1014.3
20190421032520 28 357 6.4 12.9 0.00 0.00 0.00 40 1014.4
20190421031019 28 58 8.0 11.3 0.00 0.00 0.00 41 1014.6
20190421030520 27 27 6.4 9.7 0.00 0.00 0.00 42 1014.7
20190421030020 28 17 8.0 12.9 0.00 0.00 0.00 42 1014.8
20190421025520 27 34 9.7 12.9 0.00 0.00 0.00 42 1014.9
20190421025019 27 26 8.0 11.3 0.00 0.00 0.00 42 1014.9
20190421024519 27 359 8.0 14.5 0.00 0.00 0.00 42 1014.9
20190421023019 27 68 8.0 12.9 0.00 0.00 0.00 43 1015.4
20190421022019 26 68 9.7 12.9 0.00 0.00 0.00 44 1015.7
20190421021519 27 69 8.0 12.9 0.00 0.00 0.00 44 1015.8
20190421020041 26 66 8.0 11.3 0.00 0.00 0.00 45 1016.1
20190421015519 25 58 6.4 11.3 0.00 0.00 0.00 46 1016.1
20190421014519 25 33 8.0 12.9 0.00 0.00 0.00 47 1016.4
20190421013520 25 30 8.0 14.5 0.00 0.00 0.00 48 1016.6
20190421012519 24 54 9.7 14.5 0.00 0.00 0.00 47 1016.7
20190421012020 24 68 8.0 12.9 0.00 0.00 0.00 47 1016.8
20190421011519 25 64 8.0 14.5 0.00 0.00 0.00 46 1016.9
20190421011019 25 60 9.7 16.1 0.00 0.00 0.00 46 1016.9
20190421010519 24 70 9.7 17.7 0.00 0.00 0.00 46 1016.9
20190421010019 24 87 9.7 17.7 0.00 0.00 0.00 47 1017.0
20190421005519 24 94 9.7 14.5 0.00 0.00 0.00 49 1017.1
20190421004519 22 93 6.4 9.7 0.00 0.00 0.00 53 1017.0
20190421004019 22 93 6.4 9.7 0.00 0.00 0.00 53 1017.1
20190421003520 22 126 6.4 8.0 0.00 0.00 0.00 54 1017.1
20190421003019 21 133 4.8 8.0 0.00 0.00 0.00 54 1017.0
20190421002519 21 106 3.2 8.0 0.00 0.00 0.00 55 1017.1
20190421002019 21 77 1.6 4.8 0.00 0.00 0.00 57 1017.1
20190421000020 20 181 1.6 4.8 0.00 0.00 0.00 58 1017.1
20190420235019 20 185 3.2 6.4 0.00 0.00 0.00 58 1017.2
20190420234019 20 170 3.2 4.8 0.00 0.00 0.00 60 1017.2
20190420233019 18 217 3.2 3.2 0.00 0.00 0.00 62 1017.1
20190420232020 18 262 1.6 3.2 0.00 0.00 0.00 65 1017.2
20190420231521 17 261 1.6 3.2 0.00 0.00 0.00 67 1017.2
20190420231020 16 224 1.6 3.2 0.00 0.00 0.00 69 1017.2
20190420230519 16 266 1.6 3.2 0.00 0.00 0.00 70 1017.2
20190420230020 16 272 3.2 3.2 0.00 0.00 0.00 71 1017.3
20190420225519 15 266 1.6 3.2 0.00 0.00 0.00 71 1017.2
20190420225019 15 316 1.6 4.8 0.00 0.00 0.00 72 1017.2
20190420224519 15 326 3.2 4.8 0.00 0.00 0.00 73 1017.2
20190420223520 15 309 3.2 4.8 0.00 0.00 0.00 74 1017.3
20190420223019 15 314 1.6 4.8 0.00 0.00 0.00 74 1017.4
20190420222520 14 317 3.2 6.4 0.00 0.00 0.00 75 1017.3
20190420222019 14 342 3.2 6.4 0.00 0.00 0.00 75 1017.2
20190420221019 14 333 3.2 4.8 0.00 0.00 0.00 76 1017.3
20190420220019 13 264 1.6 3.2 0.00 0.00 0.00 78 1017.2
20190420215020 13 97 3.2 4.8 0.00 0.00 0.00 79 1017.0
20190420214019 13 21 1.6 3.2 0.00 0.00 0.00 79 1017.0
20190420213519 13 318 3.2 4.8 0.00 0.00 0.00 79 1017.0
20190420212019 12 270 1.6 3.2 0.00 0.00 0.00 80 1016.8
20190420211519 12 266 1.6 3.2 0.00 0.00 0.00 80 1016.6
20190420210520 12 162 1.6 4.8 0.00 0.00 0.00 81 1016.6
20190420204020 11 218 1.6 3.2 0.00 0.00 0.00 82 1016.5
20190420203520 11 190 1.6 3.2 0.00 0.00 0.00 82 1016.4
20190420203019 11 183 1.6 4.8 0.00 0.00 0.00 82 1016.4
20190420200519 11 287 1.6 3.2 0.00 0.00 0.00 80 1015.9
20190420195019 11 166 1.6 3.2 0.00 0.00 0.00 79 1015.9
20190420194019 11 196 1.6 4.8 0.00 0.00 0.00 79 1015.9
20190420193519 11 191 0.0 3.2 0.00 0.00 0.00 79 1016.0
20190420193019 11 210 1.6 3.2 0.00 0.00 0.00 79 1016.0
20190420192519 11 308 1.6 3.2 0.00 0.00 0.00 78 1015.9
20190420192020 12 235 1.6 3.2 0.00 0.00 0.00 78 1015.9
20190420191019 12 1 0.0 3.2 0.00 0.00 0.00 78 1015.9
20190420190020 12 181 1.6 3.2 0.00 0.00 0.00 77 1015.8
20190420183019 12 0 0.0 0.0 0.00 0.00 0.00 76 1015.7
20190420182519 12 166 0.0 3.2 0.00 0.00 0.00 76 1015.6
20190420182021 12 166 0.0 3.2 0.00 0.00 0.00 76 1015.7
20190420181519 12 248 0.0 1.6 0.00 0.00 0.00 75 1015.7
20190420181018 12 238 0.0 3.2 0.00 0.00 0.00 75 1015.6
20190420180019 12 242 1.6 3.2 0.00 0.00 0.00 75 1015.6
20190420175519 12 195 1.6 3.2 0.00 0.00 0.00 75 1015.5
20190420173519 12 197 3.2 3.2 0.00 0.00 0.00 74 1015.5
20190420173019 12 174 3.2 3.2 0.00 0.00 0.00 74 1015.5
20190420172519 13 160 1.6 3.2 0.00 0.00 0.00 74 1015.6
20190420172019 13 265 0.0 3.2 0.00 0.00 0.00 74 1015.5
20190420171519 13 270 0.0 3.2 0.00 0.00 0.00 72 1015.6
20190420170019 13 270 0.0 3.2 0.00 0.00 0.00 72 1015.5
20190420165019 13 270 0.0 3.2 0.00 0.00 0.00 72 1015.3
20190420164019 13 270 1.6 3.2 0.00 0.00 0.00 71 1015.5
20190420163519 13 186 0.0 1.6 0.00 0.00 0.00 71 1015.4
20190420163019 13 181 0.0 1.6 0.00 0.00 0.00 71 1015.4
20190420162019 13 181 0.0 3.2 0.00 0.00 0.00 71 1015.4
20190420160519 14 0 0.0 0.0 0.00 0.00 0.00 69 1015.5